sensor_id;sensor_type;location;lat;lon;timestamp;P1;durP1;ratioP1;P2;durP2;ratioP2
11037;SDS011;5572;49.540;11.932;2024-02-26T00:00:50;2.03;;;2.03;;
11037;SDS011;5572;49.540;11.932;2024-02-26T00:03:16;1.90;;;1.90;;
11037;SDS011;5572;49.540;11.932;2024-02-26T00:05:43;1.90;;;1.90;;
11037;SDS011;5572;49.540;11.932;2024-02-26T00:08:10;1.90;;;1.90;;
11037;SDS011;5572;49.540;11.932;2024-02-26T00:10:36;2.00;;;2.00;;
11037;SDS011;5572;49.540;11.932;2024-02-26T00:13:03;2.00;;;2.00;;
11037;SDS011;5572;49.540;11.932;2024-02-26T00:15:30;1.80;;;1.80;;
11037;SDS011;5572;49.540;11.932;2024-02-26T00:17:58;1.80;;;1.80;;
11037;SDS011;5572;49.540;11.932;2024-02-26T00:20:24;2.10;;;2.10;;
11037;SDS011;5572;49.540;11.932;2024-02-26T00:22:51;1.90;;;1.90;;
11037;SDS011;5572;49.540;11.932;2024-02-26T00:25:17;1.80;;;1.80;;
11037;SDS011;5572;49.540;11.932;2024-02-26T00:27:44;1.83;;;1.83;;
11037;SDS011;5572;49.540;11.932;2024-02-26T00:30:11;1.90;;;1.90;;
11037;SDS011;5572;49.540;11.932;2024-02-26T00:32:37;1.90;;;1.90;;
11037;SDS011;5572;49.540;11.932;2024-02-26T00:35:06;18.50;;;17.57;;
11037;SDS011;5572;49.540;11.932;2024-02-26T00:37:34;13.90;;;13.20;;
11037;SDS011;5572;49.540;11.932;2024-02-26T00:40:01;10.88;;;10.38;;
11037;SDS011;5572;49.540;11.932;2024-02-26T00:42:28;10.10;;;9.60;;
11037;SDS011;5572;49.540;11.932;2024-02-26T00:44:54;10.15;;;9.65;;
11037;SDS011;5572;49.540;11.932;2024-02-26T00:47:21;10.43;;;9.93;;
11037;SDS011;5572;49.540;11.932;2024-02-26T00:49:47;10.20;;;9.70;;
11037;SDS011;5572;49.540;11.932;2024-02-26T00:52:15;11.95;;;11.35;;
11037;SDS011;5572;49.540;11.932;2024-02-26T00:54:42;10.68;;;10.18;;
11037;SDS011;5572;49.540;11.932;2024-02-26T00:57:08;10.68;;;10.18;;
11037;SDS011;5572;49.540;11.932;2024-02-26T00:59:35;10.55;;;10.05;;
11037;SDS011;5572;49.540;11.932;2024-02-26T01:02:02;9.93;;;9.43;;
11037;SDS011;5572;49.540;11.932;2024-02-26T01:04:30;10.50;;;10.00;;
11037;SDS011;5572;49.540;11.932;2024-02-26T01:06:57;9.93;;;9.50;;
11037;SDS011;5572;49.540;11.932;2024-02-26T01:09:25;10.07;;;9.57;;
11037;SDS011;5572;49.540;11.932;2024-02-26T01:11:51;10.13;;;9.63;;
11037;SDS011;5572;49.540;11.932;2024-02-26T01:14:18;9.13;;;8.73;;
11037;SDS011;5572;49.540;11.932;2024-02-26T01:16:45;8.52;;;8.13;;
11037;SDS011;5572;49.540;11.932;2024-02-26T01:19:11;8.45;;;8.05;;
11037;SDS011;5572;49.540;11.932;2024-02-26T01:21:38;9.05;;;8.65;;
11037;SDS011;5572;49.540;11.932;2024-02-26T01:24:05;7.28;;;6.97;;
11037;SDS011;5572;49.540;11.932;2024-02-26T01:26:33;7.20;;;6.90;;
11037;SDS011;5572;49.540;11.932;2024-02-26T01:29:00;8.05;;;7.75;;
11037;SDS011;5572;49.540;11.932;2024-02-26T01:31:27;8.70;;;8.30;;
11037;SDS011;5572;49.540;11.932;2024-02-26T01:33:53;7.85;;;7.55;;
11037;SDS011;5572;49.540;11.932;2024-02-26T01:36:20;6.30;;;6.10;;
11037;SDS011;5572;49.540;11.932;2024-02-26T01:38:47;6.40;;;6.20;;
11037;SDS011;5572;49.540;11.932;2024-02-26T01:41:13;8.00;;;7.70;;
11037;SDS011;5572;49.540;11.932;2024-02-26T01:43:42;8.60;;;8.20;;
11037;SDS011;5572;49.540;11.932;2024-02-26T01:46:08;7.13;;;6.82;;
11037;SDS011;5572;49.540;11.932;2024-02-26T01:48:40;7.72;;;7.43;;
11037;SDS011;5572;49.540;11.932;2024-02-26T01:51:07;7.80;;;7.50;;
11037;SDS011;5572;49.540;11.932;2024-02-26T01:53:33;7.30;;;7.00;;
11037;SDS011;5572;49.540;11.932;2024-02-26T01:56:01;7.13;;;6.83;;
11037;SDS011;5572;49.540;11.932;2024-02-26T01:58:28;7.07;;;6.78;;
11037;SDS011;5572;49.540;11.932;2024-02-26T02:00:57;7.80;;;7.50;;
11037;SDS011;5572;49.540;11.932;2024-02-26T02:03:24;7.32;;;7.03;;
11037;SDS011;5572;49.540;11.932;2024-02-26T02:05:51;7.90;;;7.60;;
11037;SDS011;5572;49.540;11.932;2024-02-26T02:08:18;8.65;;;8.25;;
11037;SDS011;5572;49.540;11.932;2024-02-26T02:10:45;9.18;;;8.77;;
11037;SDS011;5572;49.540;11.932;2024-02-26T02:13:12;8.57;;;8.18;;
11037;SDS011;5572;49.540;11.932;2024-02-26T02:15:39;8.55;;;8.15;;
11037;SDS011;5572;49.540;11.932;2024-02-26T02:18:07;7.47;;;7.18;;
11037;SDS011;5572;49.540;11.932;2024-02-26T02:20:35;10.10;;;9.60;;
11037;SDS011;5572;49.540;11.932;2024-02-26T02:23:02;7.55;;;7.25;;
11037;SDS011;5572;49.540;11.932;2024-02-26T02:25:29;7.95;;;7.65;;
11037;SDS011;5572;49.540;11.932;2024-02-26T02:27:56;7.45;;;7.15;;
11037;SDS011;5572;49.540;11.932;2024-02-26T02:30:24;7.38;;;7.07;;
11037;SDS011;5572;49.540;11.932;2024-02-26T02:32:54;7.63;;;7.32;;
11037;SDS011;5572;49.540;11.932;2024-02-26T02:35:22;7.43;;;7.13;;
11037;SDS011;5572;49.540;11.932;2024-02-26T02:37:51;6.38;;;6.13;;
11037;SDS011;5572;49.540;11.932;2024-02-26T02:40:18;6.65;;;6.35;;
11037;SDS011;5572;49.540;11.932;2024-02-26T02:42:45;7.68;;;7.38;;
11037;SDS011;5572;49.540;11.932;2024-02-26T02:45:12;6.90;;;6.60;;
11037;SDS011;5572;49.540;11.932;2024-02-26T02:47:38;8.02;;;7.65;;
11037;SDS011;5572;49.540;11.932;2024-02-26T02:50:05;7.07;;;6.78;;
11037;SDS011;5572;49.540;11.932;2024-02-26T02:52:33;7.57;;;7.28;;
11037;SDS011;5572;49.540;11.932;2024-02-26T02:55:01;6.72;;;6.43;;
11037;SDS011;5572;49.540;11.932;2024-02-26T02:57:27;7.80;;;7.43;;
11037;SDS011;5572;49.540;11.932;2024-02-26T02:59:55;8.20;;;7.85;;
11037;SDS011;5572;49.540;11.932;2024-02-26T03:02:22;8.80;;;8.40;;
11037;SDS011;5572;49.540;11.932;2024-02-26T03:04:49;7.80;;;7.50;;
11037;SDS011;5572;49.540;11.932;2024-02-26T03:07:16;7.80;;;7.50;;
11037;SDS011;5572;49.540;11.932;2024-02-26T03:09:43;7.80;;;7.50;;
11037;SDS011;5572;49.540;11.932;2024-02-26T03:12:11;8.40;;;8.00;;
11037;SDS011;5572;49.540;11.932;2024-02-26T03:14:38;7.60;;;7.30;;
11037;SDS011;5572;49.540;11.932;2024-02-26T03:17:04;8.48;;;8.07;;
11037;SDS011;5572;49.540;11.932;2024-02-26T03:19:31;8.43;;;8.02;;
11037;SDS011;5572;49.540;11.932;2024-02-26T03:21:58;8.27;;;7.90;;
11037;SDS011;5572;49.540;11.932;2024-02-26T03:24:25;7.95;;;7.65;;
11037;SDS011;5572;49.540;11.932;2024-02-26T03:26:51;7.65;;;7.35;;
11037;SDS011;5572;49.540;11.932;2024-02-26T03:29:19;8.55;;;8.15;;
11037;SDS011;5572;49.540;11.932;2024-02-26T03:31:46;8.02;;;7.68;;
11037;SDS011;5572;49.540;11.932;2024-02-26T03:34:13;7.63;;;7.32;;
11037;SDS011;5572;49.540;11.932;2024-02-26T03:36:40;7.85;;;7.55;;
11037;SDS011;5572;49.540;11.932;2024-02-26T03:39:07;8.48;;;8.07;;
11037;SDS011;5572;49.540;11.932;2024-02-26T03:41:34;7.30;;;7.00;;
11037;SDS011;5572;49.540;11.932;2024-02-26T03:44:01;8.32;;;7.95;;
11037;SDS011;5572;49.540;11.932;2024-02-26T03:46:29;8.43;;;8.02;;
11037;SDS011;5572;49.540;11.932;2024-02-26T03:48:55;8.90;;;8.50;;
11037;SDS011;5572;49.540;11.932;2024-02-26T03:51:22;8.77;;;8.38;;
11037;SDS011;5572;49.540;11.932;2024-02-26T03:53:48;8.88;;;8.48;;
11037;SDS011;5572;49.540;11.932;2024-02-26T03:56:15;8.38;;;7.97;;
11037;SDS011;5572;49.540;11.932;2024-02-26T03:58:42;7.95;;;7.65;;
11037;SDS011;5572;49.540;11.932;2024-02-26T04:01:08;7.25;;;6.95;;
11037;SDS011;5572;49.540;11.932;2024-02-26T04:03:36;7.60;;;7.30;;
11037;SDS011;5572;49.540;11.932;2024-02-26T04:06:03;7.57;;;7.28;;
11037;SDS011;5572;49.540;11.932;2024-02-26T04:08:30;7.72;;;7.43;;
11037;SDS011;5572;49.540;11.932;2024-02-26T04:10:57;7.47;;;7.18;;
11037;SDS011;5572;49.540;11.932;2024-02-26T04:13:24;7.20;;;6.90;;
11037;SDS011;5572;49.540;11.932;2024-02-26T04:15:51;7.95;;;7.57;;
11037;SDS011;5572;49.540;11.932;2024-02-26T04:18:18;7.70;;;7.40;;
11037;SDS011;5572;49.540;11.932;2024-02-26T04:20:46;8.43;;;8.02;;
11037;SDS011;5572;49.540;11.932;2024-02-26T04:23:12;8.25;;;7.85;;
11037;SDS011;5572;49.540;11.932;2024-02-26T04:25:39;7.28;;;6.97;;
11037;SDS011;5572;49.540;11.932;2024-02-26T04:28:06;7.82;;;7.43;;
11037;SDS011;5572;49.540;11.932;2024-02-26T04:30:32;8.98;;;8.48;;
11037;SDS011;5572;49.540;11.932;2024-02-26T04:33:01;14.00;;;12.87;;
11037;SDS011;5572;49.540;11.932;2024-02-26T04:35:59;9.50;;;9.00;;
11037;SDS011;5572;49.540;11.932;2024-02-26T04:38:51;9.35;;;8.85;;
11037;SDS011;5572;49.540;11.932;2024-02-26T04:41:31;8.68;;;8.27;;
11037;SDS011;5572;49.540;11.932;2024-02-26T04:44:35;8.68;;;8.25;;
11037;SDS011;5572;49.540;11.932;2024-02-26T04:57:53;8.50;;;8.10;;
11037;SDS011;5572;49.540;11.932;2024-02-26T05:01:01;9.48;;;8.98;;
11037;SDS011;5572;49.540;11.932;2024-02-26T05:03:59;10.30;;;9.75;;
11037;SDS011;5572;49.540;11.932;2024-02-26T05:07:35;9.23;;;8.83;;
11037;SDS011;5572;49.540;11.932;2024-02-26T05:10:57;7.63;;;7.33;;
11037;SDS011;5572;49.540;11.932;2024-02-26T07:08:45;10.20;;;9.60;;
11037;SDS011;5572;49.540;11.932;2024-02-26T07:11:19;10.27;;;9.73;;
11037;SDS011;5572;49.540;11.932;2024-02-26T07:13:50;8.60;;;8.23;;
11037;SDS011;5572;49.540;11.932;2024-02-26T07:16:19;10.37;;;9.80;;
11037;SDS011;5572;49.540;11.932;2024-02-26T07:18:48;12.63;;;11.93;;
11037;SDS011;5572;49.540;11.932;2024-02-26T07:24:34;10.90;;;10.40;;
11037;SDS011;5572;49.540;11.932;2024-02-26T07:27:20;9.43;;;9.00;;
11037;SDS011;5572;49.540;11.932;2024-02-26T07:29:51;9.97;;;9.47;;
11037;SDS011;5572;49.540;11.932;2024-02-26T07:32:36;11.40;;;10.70;;
11037;SDS011;5572;49.540;11.932;2024-02-26T07:35:06;10.60;;;9.87;;
11037;SDS011;5572;49.540;11.932;2024-02-26T07:37:36;11.23;;;10.60;;
11037;SDS011;5572;49.540;11.932;2024-02-26T07:46:59;9.47;;;9.07;;
11037;SDS011;5572;49.540;11.932;2024-02-26T07:49:42;11.97;;;11.37;;
11037;SDS011;5572;49.540;11.932;2024-02-26T07:52:48;10.33;;;9.83;;
11037;SDS011;5572;49.540;11.932;2024-02-26T07:55:43;11.50;;;10.93;;
11037;SDS011;5572;49.540;11.932;2024-02-26T08:01:32;11.50;;;10.93;;
11037;SDS011;5572;49.540;11.932;2024-02-26T10:34:22;5.30;;;5.10;;
11037;SDS011;5572;49.540;11.932;2024-02-26T10:36:49;5.60;;;5.40;;
11037;SDS011;5572;49.540;11.932;2024-02-26T10:39:15;5.03;;;4.83;;
11037;SDS011;5572;49.540;11.932;2024-02-26T10:41:42;5.20;;;5.00;;
11037;SDS011;5572;49.540;11.932;2024-02-26T10:44:09;5.00;;;4.80;;
11037;SDS011;5572;49.540;11.932;2024-02-26T10:46:37;5.03;;;4.83;;
11037;SDS011;5572;49.540;11.932;2024-02-26T10:49:04;4.53;;;4.43;;
11037;SDS011;5572;49.540;11.932;2024-02-26T10:51:32;5.40;;;5.20;;
11037;SDS011;5572;49.540;11.932;2024-02-26T10:54:04;4.70;;;4.60;;
11037;SDS011;5572;49.540;11.932;2024-02-26T10:56:33;4.47;;;4.37;;
11037;SDS011;5572;49.540;11.932;2024-02-26T10:59:00;5.10;;;4.90;;
11037;SDS011;5572;49.540;11.932;2024-02-26T11:01:27;6.40;;;6.20;;
11037;SDS011;5572;49.540;11.932;2024-02-26T11:03:56;5.70;;;5.50;;
11037;SDS011;5572;49.540;11.932;2024-02-26T11:06:26;6.10;;;5.90;;
11037;SDS011;5572;49.540;11.932;2024-02-26T11:08:56;5.73;;;5.53;;
11037;SDS011;5572;49.540;11.932;2024-02-26T11:11:25;5.73;;;5.53;;
11037;SDS011;5572;49.540;11.932;2024-02-26T11:13:52;5.10;;;4.90;;
11037;SDS011;5572;49.540;11.932;2024-02-26T11:16:21;4.17;;;4.07;;
11037;SDS011;5572;49.540;11.932;2024-02-26T11:18:48;5.10;;;4.90;;
11037;SDS011;5572;49.540;11.932;2024-02-26T11:21:15;4.50;;;4.40;;
11037;SDS011;5572;49.540;11.932;2024-02-26T11:23:43;4.73;;;4.63;;
11037;SDS011;5572;49.540;11.932;2024-02-26T11:26:12;6.17;;;5.97;;
11037;SDS011;5572;49.540;11.932;2024-02-26T11:28:42;6.17;;;5.97;;
11037;SDS011;5572;49.540;11.932;2024-02-26T11:31:10;5.57;;;5.37;;
11037;SDS011;5572;49.540;11.932;2024-02-26T11:33:38;5.87;;;5.67;;
11037;SDS011;5572;49.540;11.932;2024-02-26T11:36:07;5.70;;;5.50;;
11037;SDS011;5572;49.540;11.932;2024-02-26T11:38:35;6.13;;;5.93;;
11037;SDS011;5572;49.540;11.932;2024-02-26T11:41:02;5.27;;;5.07;;
11037;SDS011;5572;49.540;11.932;2024-02-26T11:46:27;5.83;;;5.63;;
11037;SDS011;5572;49.540;11.932;2024-02-26T11:48:58;5.50;;;5.30;;
11037;SDS011;5572;49.540;11.932;2024-02-26T11:51:26;4.47;;;4.37;;
11037;SDS011;5572;49.540;11.932;2024-02-26T11:53:53;5.33;;;5.13;;
11037;SDS011;5572;49.540;11.932;2024-02-26T11:56:22;5.70;;;5.50;;
11037;SDS011;5572;49.540;11.932;2024-02-26T11:59:00;5.90;;;5.70;;
11037;SDS011;5572;49.540;11.932;2024-02-26T12:01:37;6.53;;;6.33;;
11037;SDS011;5572;49.540;11.932;2024-02-26T12:04:05;6.30;;;6.10;;
11037;SDS011;5572;49.540;11.932;2024-02-26T12:06:39;5.77;;;5.57;;
11037;SDS011;5572;49.540;11.932;2024-02-26T12:09:07;6.27;;;6.07;;
11037;SDS011;5572;49.540;11.932;2024-02-26T12:11:36;6.43;;;6.23;;
11037;SDS011;5572;49.540;11.932;2024-02-26T12:14:07;6.13;;;5.93;;
11037;SDS011;5572;49.540;11.932;2024-02-26T12:16:34;6.50;;;6.30;;
11037;SDS011;5572;49.540;11.932;2024-02-26T12:19:02;5.90;;;5.70;;
11037;SDS011;5572;49.540;11.932;2024-02-26T12:21:30;6.57;;;6.30;;
11037;SDS011;5572;49.540;11.932;2024-02-26T12:24:06;6.50;;;6.30;;
11037;SDS011;5572;49.540;11.932;2024-02-26T12:26:34;6.60;;;6.37;;
11037;SDS011;5572;49.540;11.932;2024-02-26T12:29:00;6.23;;;6.03;;
11037;SDS011;5572;49.540;11.932;2024-02-26T12:31:28;6.83;;;6.53;;
11037;SDS011;5572;49.540;11.932;2024-02-26T12:33:56;5.83;;;5.63;;
11037;SDS011;5572;49.540;11.932;2024-02-26T12:36:23;7.00;;;6.70;;
11037;SDS011;5572;49.540;11.932;2024-02-26T12:38:49;6.07;;;5.87;;
11037;SDS011;5572;49.540;11.932;2024-02-26T12:41:17;6.53;;;6.33;;
11037;SDS011;5572;49.540;11.932;2024-02-26T12:43:43;6.80;;;6.50;;
11037;SDS011;5572;49.540;11.932;2024-02-26T12:46:10;6.37;;;6.17;;
11037;SDS011;5572;49.540;11.932;2024-02-26T12:48:39;6.87;;;6.57;;
11037;SDS011;5572;49.540;11.932;2024-02-26T12:51:05;7.20;;;6.90;;
11037;SDS011;5572;49.540;11.932;2024-02-26T12:53:35;6.83;;;6.53;;
11037;SDS011;5572;49.540;11.932;2024-02-26T12:56:02;6.83;;;6.53;;
11037;SDS011;5572;49.540;11.932;2024-02-26T12:58:29;6.93;;;6.63;;
11037;SDS011;5572;49.540;11.932;2024-02-26T13:00:57;6.80;;;6.50;;
11037;SDS011;5572;49.540;11.932;2024-02-26T13:03:24;7.27;;;6.97;;
11037;SDS011;5572;49.540;11.932;2024-02-26T13:05:53;7.00;;;6.70;;
11037;SDS011;5572;49.540;11.932;2024-02-26T13:08:20;7.13;;;6.83;;
11037;SDS011;5572;49.540;11.932;2024-02-26T13:10:47;8.43;;;8.03;;
11037;SDS011;5572;49.540;11.932;2024-02-26T13:13:15;7.33;;;7.03;;
11037;SDS011;5572;49.540;11.932;2024-02-26T13:15:43;6.20;;;6.00;;
11037;SDS011;5572;49.540;11.932;2024-02-26T13:18:09;11.30;;;10.80;;
11037;SDS011;5572;49.540;11.932;2024-02-26T13:20:37;11.03;;;10.53;;
11037;SDS011;5572;49.540;11.932;2024-02-26T13:23:06;10.20;;;9.73;;
11037;SDS011;5572;49.540;11.932;2024-02-26T13:25:34;7.57;;;7.27;;
11037;SDS011;5572;49.540;11.932;2024-02-26T13:28:05;6.93;;;6.63;;
11037;SDS011;5572;49.540;11.932;2024-02-26T13:30:33;7.23;;;6.93;;
11037;SDS011;5572;49.540;11.932;2024-02-26T13:33:06;8.67;;;8.27;;
11037;SDS011;5572;49.540;11.932;2024-02-26T13:35:35;16.43;;;15.00;;
11037;SDS011;5572;49.540;11.932;2024-02-26T13:38:01;11.47;;;10.97;;
11037;SDS011;5572;49.540;11.932;2024-02-26T13:40:30;11.27;;;10.67;;
11037;SDS011;5572;49.540;11.932;2024-02-26T13:42:56;11.30;;;10.80;;
11037;SDS011;5572;49.540;11.932;2024-02-26T13:45:23;12.50;;;11.90;;
11037;SDS011;5572;49.540;11.932;2024-02-26T13:47:49;12.27;;;11.67;;
11037;SDS011;5572;49.540;11.932;2024-02-26T13:50:16;12.27;;;11.67;;
11037;SDS011;5572;49.540;11.932;2024-02-26T13:52:46;12.30;;;11.63;;
11037;SDS011;5572;49.540;11.932;2024-02-26T13:55:12;11.70;;;11.20;;
11037;SDS011;5572;49.540;11.932;2024-02-26T13:57:41;11.27;;;10.77;;
11037;SDS011;5572;49.540;11.932;2024-02-26T14:00:07;11.17;;;10.67;;
11037;SDS011;5572;49.540;11.932;2024-02-26T14:02:36;10.27;;;9.77;;
11037;SDS011;5572;49.540;11.932;2024-02-26T14:05:02;11.57;;;11.00;;
11037;SDS011;5572;49.540;11.932;2024-02-26T14:07:29;10.60;;;10.10;;
11037;SDS011;5572;49.540;11.932;2024-02-26T14:09:57;11.67;;;11.07;;
11037;SDS011;5572;49.540;11.932;2024-02-26T14:12:23;10.97;;;10.47;;
11037;SDS011;5572;49.540;11.932;2024-02-26T14:14:51;9.20;;;8.80;;
11037;SDS011;5572;49.540;11.932;2024-02-26T14:17:20;9.70;;;9.23;;
11037;SDS011;5572;49.540;11.932;2024-02-26T14:19:47;8.00;;;7.70;;
11037;SDS011;5572;49.540;11.932;2024-02-26T14:22:15;9.27;;;8.87;;
11037;SDS011;5572;49.540;11.932;2024-02-26T14:24:41;10.53;;;10.03;;
11037;SDS011;5572;49.540;11.932;2024-02-26T14:27:09;9.67;;;9.27;;
11037;SDS011;5572;49.540;11.932;2024-02-26T14:29:37;9.37;;;8.97;;
11037;SDS011;5572;49.540;11.932;2024-02-26T14:32:06;8.83;;;8.43;;
11037;SDS011;5572;49.540;11.932;2024-02-26T14:34:33;9.93;;;9.50;;
11037;SDS011;5572;49.540;11.932;2024-02-26T14:36:59;8.33;;;8.00;;
11037;SDS011;5572;49.540;11.932;2024-02-26T14:39:26;8.07;;;7.77;;
11037;SDS011;5572;49.540;11.932;2024-02-26T14:41:52;9.53;;;9.13;;
11037;SDS011;5572;49.540;11.932;2024-02-26T14:44:19;9.00;;;8.60;;
11037;SDS011;5572;49.540;11.932;2024-02-26T14:46:45;8.13;;;7.83;;
11037;SDS011;5572;49.540;11.932;2024-02-26T14:49:14;9.10;;;8.70;;
11037;SDS011;5572;49.540;11.932;2024-02-26T14:51:40;7.60;;;7.30;;
11037;SDS011;5572;49.540;11.932;2024-02-26T14:54:07;10.13;;;9.63;;
11037;SDS011;5572;49.540;11.932;2024-02-26T14:56:34;8.00;;;7.70;;
11037;SDS011;5572;49.540;11.932;2024-02-26T14:59:00;8.80;;;8.40;;
11037;SDS011;5572;49.540;11.932;2024-02-26T15:01:27;9.33;;;8.93;;
11037;SDS011;5572;49.540;11.932;2024-02-26T15:03:53;9.23;;;8.83;;
11037;SDS011;5572;49.540;11.932;2024-02-26T15:06:21;8.00;;;7.70;;
11037;SDS011;5572;49.540;11.932;2024-02-26T15:08:48;9.00;;;8.60;;
11037;SDS011;5572;49.540;11.932;2024-02-26T15:11:15;9.73;;;9.33;;
11037;SDS011;5572;49.540;11.932;2024-02-26T15:13:41;10.13;;;9.63;;
11037;SDS011;5572;49.540;11.932;2024-02-26T15:16:08;8.70;;;8.30;;
11037;SDS011;5572;49.540;11.932;2024-02-26T15:18:36;9.40;;;9.00;;
11037;SDS011;5572;49.540;11.932;2024-02-26T15:21:04;9.47;;;9.07;;
11037;SDS011;5572;49.540;11.932;2024-02-26T15:23:33;9.67;;;9.27;;
11037;SDS011;5572;49.540;11.932;2024-02-26T15:26:00;9.30;;;8.90;;
11037;SDS011;5572;49.540;11.932;2024-02-26T15:28:27;8.20;;;7.90;;
11037;SDS011;5572;49.540;11.932;2024-02-26T15:30:54;8.87;;;8.47;;
11037;SDS011;5572;49.540;11.932;2024-02-26T15:33:21;9.30;;;8.90;;
11037;SDS011;5572;49.540;11.932;2024-02-26T15:35:49;8.87;;;8.47;;
11037;SDS011;5572;49.540;11.932;2024-02-26T15:38:16;9.77;;;9.37;;
11037;SDS011;5572;49.540;11.932;2024-02-26T15:40:44;8.63;;;8.23;;
11037;SDS011;5572;49.540;11.932;2024-02-26T15:43:12;8.77;;;8.37;;
11037;SDS011;5572;49.540;11.932;2024-02-26T15:45:38;7.63;;;7.33;;
11037;SDS011;5572;49.540;11.932;2024-02-26T15:48:05;8.50;;;8.10;;
11037;SDS011;5572;49.540;11.932;2024-02-26T15:50:32;8.50;;;8.10;;
11037;SDS011;5572;49.540;11.932;2024-02-26T15:52:59;7.57;;;7.27;;
11037;SDS011;5572;49.540;11.932;2024-02-26T15:55:26;8.37;;;7.97;;
11037;SDS011;5572;49.540;11.932;2024-02-26T15:57:54;8.03;;;7.73;;
11037;SDS011;5572;49.540;11.932;2024-02-26T16:00:20;7.37;;;7.07;;
11037;SDS011;5572;49.540;11.932;2024-02-26T16:02:47;7.23;;;6.93;;
11037;SDS011;5572;49.540;11.932;2024-02-26T16:05:14;8.07;;;7.73;;
11037;SDS011;5572;49.540;11.932;2024-02-26T16:07:42;8.57;;;8.17;;
11037;SDS011;5572;49.540;11.932;2024-02-26T16:10:12;8.23;;;7.87;;
11037;SDS011;5572;49.540;11.932;2024-02-26T16:12:39;9.33;;;8.90;;
11037;SDS011;5572;49.540;11.932;2024-02-26T16:15:10;10.27;;;9.57;;
11037;SDS011;5572;49.540;11.932;2024-02-26T16:17:37;9.50;;;9.10;;
11037;SDS011;5572;49.540;11.932;2024-02-26T16:20:11;8.87;;;8.47;;
11037;SDS011;5572;49.540;11.932;2024-02-26T16:22:39;9.00;;;8.60;;
11037;SDS011;5572;49.540;11.932;2024-02-26T16:25:06;8.70;;;8.30;;
11037;SDS011;5572;49.540;11.932;2024-02-26T16:27:33;9.70;;;9.20;;
11037;SDS011;5572;49.540;11.932;2024-02-26T16:30:01;7.67;;;7.37;;
11037;SDS011;5572;49.540;11.932;2024-02-26T16:32:31;7.97;;;7.67;;
11037;SDS011;5572;49.540;11.932;2024-02-26T16:34:58;9.03;;;8.63;;
11037;SDS011;5572;49.540;11.932;2024-02-26T16:37:25;8.80;;;8.40;;
11037;SDS011;5572;49.540;11.932;2024-02-26T16:39:52;9.57;;;9.10;;
11037;SDS011;5572;49.540;11.932;2024-02-26T16:42:18;8.57;;;8.17;;
11037;SDS011;5572;49.540;11.932;2024-02-26T16:44:47;7.80;;;7.50;;
11037;SDS011;5572;49.540;11.932;2024-02-26T16:47:13;9.70;;;9.27;;
11037;SDS011;5572;49.540;11.932;2024-02-26T16:49:41;9.77;;;9.27;;
11037;SDS011;5572;49.540;11.932;2024-02-26T16:52:09;9.37;;;8.97;;
11037;SDS011;5572;49.540;11.932;2024-02-26T16:54:37;9.50;;;9.03;;
11037;SDS011;5572;49.540;11.932;2024-02-26T16:57:04;9.63;;;9.13;;
11037;SDS011;5572;49.540;11.932;2024-02-26T16:59:31;9.63;;;9.13;;
11037;SDS011;5572;49.540;11.932;2024-02-26T17:01:57;8.80;;;8.40;;
11037;SDS011;5572;49.540;11.932;2024-02-26T17:04:24;9.47;;;8.97;;
11037;SDS011;5572;49.540;11.932;2024-02-26T17:06:53;9.57;;;9.07;;
11037;SDS011;5572;49.540;11.932;2024-02-26T17:09:20;10.93;;;10.33;;
11037;SDS011;5572;49.540;11.932;2024-02-26T17:11:47;10.63;;;10.07;;
11037;SDS011;5572;49.540;11.932;2024-02-26T17:14:14;10.20;;;9.70;;
11037;SDS011;5572;49.540;11.932;2024-02-26T17:16:41;9.73;;;9.23;;
11037;SDS011;5572;49.540;11.932;2024-02-26T17:19:07;10.80;;;10.20;;
11037;SDS011;5572;49.540;11.932;2024-02-26T17:21:34;9.60;;;9.10;;
11037;SDS011;5572;49.540;11.932;2024-02-26T17:24:02;9.67;;;9.17;;
11037;SDS011;5572;49.540;11.932;2024-02-26T17:26:28;9.60;;;9.10;;
11037;SDS011;5572;49.540;11.932;2024-02-26T17:28:55;9.67;;;9.23;;
11037;SDS011;5572;49.540;11.932;2024-02-26T17:31:24;9.73;;;9.27;;
11037;SDS011;5572;49.540;11.932;2024-02-26T17:33:51;9.77;;;9.27;;
11037;SDS011;5572;49.540;11.932;2024-02-26T17:36:17;9.20;;;8.80;;
11037;SDS011;5572;49.540;11.932;2024-02-26T17:38:44;9.70;;;9.30;;
11037;SDS011;5572;49.540;11.932;2024-02-26T17:41:14;9.83;;;9.33;;
11037;SDS011;5572;49.540;11.932;2024-02-26T17:43:41;9.67;;;9.20;;
11037;SDS011;5572;49.540;11.932;2024-02-26T17:46:08;9.53;;;9.10;;
11037;SDS011;5572;49.540;11.932;2024-02-26T17:48:35;9.97;;;9.47;;
11037;SDS011;5572;49.540;11.932;2024-02-26T17:51:02;9.17;;;8.77;;
11037;SDS011;5572;49.540;11.932;2024-02-26T17:53:28;9.40;;;8.93;;
11037;SDS011;5572;49.540;11.932;2024-02-26T17:55:55;9.40;;;9.00;;
11037;SDS011;5572;49.540;11.932;2024-02-26T17:58:23;9.57;;;9.07;;
11037;SDS011;5572;49.540;11.932;2024-02-26T18:00:50;10.37;;;9.87;;
11037;SDS011;5572;49.540;11.932;2024-02-26T18:03:16;9.00;;;8.60;;
11037;SDS011;5572;49.540;11.932;2024-02-26T18:05:43;10.77;;;10.17;;
11037;SDS011;5572;49.540;11.932;2024-02-26T18:08:10;9.43;;;9.03;;
11037;SDS011;5572;49.540;11.932;2024-02-26T18:10:37;11.03;;;10.47;;
11037;SDS011;5572;49.540;11.932;2024-02-26T18:13:03;10.03;;;9.53;;
11037;SDS011;5572;49.540;11.932;2024-02-26T18:15:31;11.70;;;11.10;;
11037;SDS011;5572;49.540;11.932;2024-02-26T18:17:58;10.53;;;10.03;;
11037;SDS011;5572;49.540;11.932;2024-02-26T18:20:25;11.73;;;11.13;;
11037;SDS011;5572;49.540;11.932;2024-02-26T18:22:51;10.80;;;10.27;;
11037;SDS011;5572;49.540;11.932;2024-02-26T18:25:22;10.40;;;9.90;;
11037;SDS011;5572;49.540;11.932;2024-02-26T18:27:49;11.63;;;11.03;;
11037;SDS011;5572;49.540;11.932;2024-02-26T18:30:16;10.63;;;10.13;;
11037;SDS011;5572;49.540;11.932;2024-02-26T18:32:45;10.77;;;10.27;;
11037;SDS011;5572;49.540;11.932;2024-02-26T18:35:11;11.50;;;10.90;;
11037;SDS011;5572;49.540;11.932;2024-02-26T18:37:38;12.73;;;12.03;;
11037;SDS011;5572;49.540;11.932;2024-02-26T18:40:05;11.67;;;11.07;;
11037;SDS011;5572;49.540;11.932;2024-02-26T18:42:33;11.67;;;11.07;;
11037;SDS011;5572;49.540;11.932;2024-02-26T18:45:00;12.30;;;11.70;;
11037;SDS011;5572;49.540;11.932;2024-02-26T18:47:27;11.70;;;11.10;;
11037;SDS011;5572;49.540;11.932;2024-02-26T18:49:55;10.60;;;10.10;;
11037;SDS011;5572;49.540;11.932;2024-02-26T18:52:22;10.10;;;9.53;;
11037;SDS011;5572;49.540;11.932;2024-02-26T18:54:49;11.17;;;10.63;;
11037;SDS011;5572;49.540;11.932;2024-02-26T18:57:15;11.93;;;11.33;;
11037;SDS011;5572;49.540;11.932;2024-02-26T18:59:42;9.47;;;9.00;;
11037;SDS011;5572;49.540;11.932;2024-02-26T19:02:11;9.53;;;9.13;;
11037;SDS011;5572;49.540;11.932;2024-02-26T19:04:38;10.37;;;9.87;;
11037;SDS011;5572;49.540;11.932;2024-02-26T19:07:06;10.00;;;9.50;;
11037;SDS011;5572;49.540;11.932;2024-02-26T19:09:33;10.90;;;10.40;;
11037;SDS011;5572;49.540;11.932;2024-02-26T19:12:01;9.87;;;9.40;;
11037;SDS011;5572;49.540;11.932;2024-02-26T19:14:28;9.70;;;9.23;;
11037;SDS011;5572;49.540;11.932;2024-02-26T19:16:55;10.03;;;9.60;;
11037;SDS011;5572;49.540;11.932;2024-02-26T19:19:21;10.53;;;10.03;;
11037;SDS011;5572;49.540;11.932;2024-02-26T19:21:48;11.67;;;11.07;;
11037;SDS011;5572;49.540;11.932;2024-02-26T19:24:16;10.90;;;10.37;;
11037;SDS011;5572;49.540;11.932;2024-02-26T19:26:43;11.30;;;10.70;;
11037;SDS011;5572;49.540;11.932;2024-02-26T19:29:10;12.10;;;11.43;;
11037;SDS011;5572;49.540;11.932;2024-02-26T19:31:36;10.70;;;10.20;;
11037;SDS011;5572;49.540;11.932;2024-02-26T19:34:03;10.57;;;10.07;;
11037;SDS011;5572;49.540;11.932;2024-02-26T19:36:29;11.80;;;11.07;;
11037;SDS011;5572;49.540;11.932;2024-02-26T19:38:56;11.77;;;11.17;;
11037;SDS011;5572;49.540;11.932;2024-02-26T19:41:24;10.67;;;10.17;;